sensor_id;sensor_type;location;lat;lon;timestamp;P1;durP1;ratioP1;P2;durP2;ratioP2
8423;SDS011;4249;49.072;9.770;2022-08-03T00:02:27;4.50;;;2.78;;
8423;SDS011;4249;49.072;9.770;2022-08-03T00:05:15;2.72;;;2.53;;
8423;SDS011;4249;49.072;9.770;2022-08-03T00:08:02;2.90;;;2.63;;
8423;SDS011;4249;49.072;9.770;2022-08-03T00:10:49;2.97;;;2.45;;
8423;SDS011;4249;49.072;9.770;2022-08-03T00:13:37;4.32;;;2.30;;
8423;SDS011;4249;49.072;9.770;2022-08-03T00:16:24;3.95;;;2.65;;
8423;SDS011;4249;49.072;9.770;2022-08-03T00:19:12;2.65;;;2.45;;
8423;SDS011;4249;49.072;9.770;2022-08-03T00:22:00;2.88;;;2.53;;
8423;SDS011;4249;49.072;9.770;2022-08-03T00:24:47;2.70;;;2.50;;
8423;SDS011;4249;49.072;9.770;2022-08-03T00:27:34;2.97;;;2.60;;
8423;SDS011;4249;49.072;9.770;2022-08-03T00:30:21;2.53;;;2.33;;
8423;SDS011;4249;49.072;9.770;2022-08-03T00:33:08;2.90;;;2.55;;
8423;SDS011;4249;49.072;9.770;2022-08-03T00:35:57;5.18;;;3.03;;
8423;SDS011;4249;49.072;9.770;2022-08-03T00:38:44;3.17;;;2.97;;
8423;SDS011;4249;49.072;9.770;2022-08-03T00:41:31;3.15;;;2.85;;
8423;SDS011;4249;49.072;9.770;2022-08-03T00:44:18;3.50;;;3.15;;
8423;SDS011;4249;49.072;9.770;2022-08-03T00:47:06;3.33;;;3.03;;
8423;SDS011;4249;49.072;9.770;2022-08-03T00:49:54;3.97;;;3.08;;
8423;SDS011;4249;49.072;9.770;2022-08-03T00:52:43;3.33;;;3.00;;
8423;SDS011;4249;49.072;9.770;2022-08-03T00:55:31;3.30;;;3.00;;
8423;SDS011;4249;49.072;9.770;2022-08-03T00:58:18;3.42;;;3.08;;
8423;SDS011;4249;49.072;9.770;2022-08-03T01:01:06;3.15;;;2.60;;
8423;SDS011;4249;49.072;9.770;2022-08-03T01:03:53;3.40;;;3.10;;
8423;SDS011;4249;49.072;9.770;2022-08-03T01:06:42;3.10;;;2.83;;
8423;SDS011;4249;49.072;9.770;2022-08-03T01:09:45;4.35;;;3.50;;
8423;SDS011;4249;49.072;9.770;2022-08-03T01:12:40;3.70;;;3.13;;
8423;SDS011;4249;49.072;9.770;2022-08-03T01:15:35;5.22;;;3.40;;
8423;SDS011;4249;49.072;9.770;2022-08-03T01:18:31;4.57;;;3.20;;
8423;SDS011;4249;49.072;9.770;2022-08-03T01:21:23;3.50;;;3.20;;
8423;SDS011;4249;49.072;9.770;2022-08-03T01:24:18;3.60;;;3.13;;
8423;SDS011;4249;49.072;9.770;2022-08-03T01:27:20;3.50;;;3.20;;
8423;SDS011;4249;49.072;9.770;2022-08-03T01:30:13;3.53;;;3.22;;
8423;SDS011;4249;49.072;9.770;2022-08-03T01:33:01;3.65;;;3.35;;
8423;SDS011;4249;49.072;9.770;2022-08-03T01:35:53;3.83;;;3.40;;
8423;SDS011;4249;49.072;9.770;2022-08-03T01:38:45;5.10;;;3.35;;
8423;SDS011;4249;49.072;9.770;2022-08-03T01:41:38;3.92;;;3.50;;
8423;SDS011;4249;49.072;9.770;2022-08-03T01:44:32;3.08;;;2.75;;
8423;SDS011;4249;49.072;9.770;2022-08-03T01:47:24;3.92;;;3.25;;
8423;SDS011;4249;49.072;9.770;2022-08-03T01:50:14;3.30;;;3.00;;
8423;SDS011;4249;49.072;9.770;2022-08-03T01:53:05;5.32;;;3.40;;
8423;SDS011;4249;49.072;9.770;2022-08-03T01:55:54;3.47;;;3.17;;
8423;SDS011;4249;49.072;9.770;2022-08-03T01:58:44;4.15;;;3.17;;
8423;SDS011;4249;49.072;9.770;2022-08-03T02:01:34;3.55;;;3.25;;
8423;SDS011;4249;49.072;9.770;2022-08-03T02:04:24;3.30;;;3.00;;
8423;SDS011;4249;49.072;9.770;2022-08-03T02:07:13;4.50;;;3.38;;
8423;SDS011;4249;49.072;9.770;2022-08-03T02:10:03;4.00;;;3.42;;
8423;SDS011;4249;49.072;9.770;2022-08-03T02:12:52;4.95;;;3.67;;
8423;SDS011;4249;49.072;9.770;2022-08-03T02:15:40;3.65;;;3.35;;
8423;SDS011;4249;49.072;9.770;2022-08-03T02:18:28;3.78;;;3.33;;
8423;SDS011;4249;49.072;9.770;2022-08-03T02:21:18;4.20;;;3.65;;
8423;SDS011;4249;49.072;9.770;2022-08-03T02:24:06;4.35;;;3.47;;
8423;SDS011;4249;49.072;9.770;2022-08-03T02:26:54;4.72;;;3.67;;
8423;SDS011;4249;49.072;9.770;2022-08-03T02:29:43;5.38;;;3.53;;
8423;SDS011;4249;49.072;9.770;2022-08-03T02:32:34;4.00;;;3.60;;
8423;SDS011;4249;49.072;9.770;2022-08-03T02:35:25;3.90;;;3.60;;
8423;SDS011;4249;49.072;9.770;2022-08-03T02:38:15;3.75;;;3.45;;
8423;SDS011;4249;49.072;9.770;2022-08-03T02:41:06;4.43;;;3.58;;
8423;SDS011;4249;49.072;9.770;2022-08-03T02:43:58;4.15;;;3.75;;
8423;SDS011;4249;49.072;9.770;2022-08-03T02:46:48;3.78;;;3.47;;
8423;SDS011;4249;49.072;9.770;2022-08-03T02:49:41;3.92;;;3.55;;
8423;SDS011;4249;49.072;9.770;2022-08-03T02:52:31;3.60;;;3.30;;
8423;SDS011;4249;49.072;9.770;2022-08-03T02:55:23;3.83;;;3.47;;
8423;SDS011;4249;49.072;9.770;2022-08-03T02:58:12;4.10;;;3.70;;
8423;SDS011;4249;49.072;9.770;2022-08-03T03:01:03;4.65;;;4.00;;
8423;SDS011;4249;49.072;9.770;2022-08-03T03:03:52;3.85;;;3.42;;
8423;SDS011;4249;49.072;9.770;2022-08-03T03:06:42;4.70;;;3.53;;
8423;SDS011;4249;49.072;9.770;2022-08-03T03:09:31;4.35;;;3.85;;
8423;SDS011;4249;49.072;9.770;2022-08-03T03:12:21;3.85;;;3.53;;
8423;SDS011;4249;49.072;9.770;2022-08-03T03:15:09;4.47;;;3.78;;
8423;SDS011;4249;49.072;9.770;2022-08-03T03:17:56;4.25;;;3.53;;
8423;SDS011;4249;49.072;9.770;2022-08-03T03:20:46;3.72;;;3.42;;
8423;SDS011;4249;49.072;9.770;2022-08-03T03:23:35;5.35;;;3.72;;
8423;SDS011;4249;49.072;9.770;2022-08-03T03:26:24;5.60;;;3.67;;
8423;SDS011;4249;49.072;9.770;2022-08-03T03:29:14;3.85;;;3.30;;
8423;SDS011;4249;49.072;9.770;2022-08-03T03:32:01;3.78;;;3.25;;
8423;SDS011;4249;49.072;9.770;2022-08-03T03:34:50;3.97;;;3.30;;
8423;SDS011;4249;49.072;9.770;2022-08-03T03:37:38;4.13;;;3.38;;
8423;SDS011;4249;49.072;9.770;2022-08-03T03:40:25;3.95;;;3.47;;
8423;SDS011;4249;49.072;9.770;2022-08-03T03:43:13;3.80;;;3.50;;
8423;SDS011;4249;49.072;9.770;2022-08-03T03:46:04;3.65;;;3.35;;
8423;SDS011;4249;49.072;9.770;2022-08-03T03:48:51;3.65;;;3.35;;
8423;SDS011;4249;49.072;9.770;2022-08-03T03:51:38;4.45;;;3.40;;
8423;SDS011;4249;49.072;9.770;2022-08-03T03:54:25;4.20;;;3.72;;
8423;SDS011;4249;49.072;9.770;2022-08-03T03:57:24;3.80;;;3.50;;
8423;SDS011;4249;49.072;9.770;2022-08-03T04:00:12;4.45;;;3.85;;
8423;SDS011;4249;49.072;9.770;2022-08-03T04:03:03;4.82;;;4.00;;
8423;SDS011;4249;49.072;9.770;2022-08-03T04:05:50;4.38;;;3.97;;
8423;SDS011;4249;49.072;9.770;2022-08-03T04:08:54;3.92;;;3.53;;
8423;SDS011;4249;49.072;9.770;2022-08-03T04:11:59;4.25;;;3.78;;
8423;SDS011;4249;49.072;9.770;2022-08-03T04:14:47;3.33;;;2.80;;
8423;SDS011;4249;49.072;9.770;2022-08-03T04:17:36;4.50;;;3.45;;
8423;SDS011;4249;49.072;9.770;2022-08-03T04:20:25;4.45;;;3.58;;
8423;SDS011;4249;49.072;9.770;2022-08-03T04:23:16;4.40;;;3.28;;
8423;SDS011;4249;49.072;9.770;2022-08-03T04:26:08;3.90;;;3.50;;
8423;SDS011;4249;49.072;9.770;2022-08-03T04:28:57;3.85;;;3.53;;
8423;SDS011;4249;49.072;9.770;2022-08-03T04:31:45;4.35;;;3.78;;
8423;SDS011;4249;49.072;9.770;2022-08-03T04:34:34;4.22;;;3.80;;
8423;SDS011;4249;49.072;9.770;2022-08-03T04:37:25;4.60;;;4.03;;
8423;SDS011;4249;49.072;9.770;2022-08-03T04:40:20;4.70;;;4.20;;
8423;SDS011;4249;49.072;9.770;2022-08-03T04:43:10;5.82;;;4.57;;
8423;SDS011;4249;49.072;9.770;2022-08-03T04:46:00;4.78;;;3.80;;
8423;SDS011;4249;49.072;9.770;2022-08-03T04:48:48;4.68;;;4.00;;
8423;SDS011;4249;49.072;9.770;2022-08-03T04:51:36;4.38;;;3.88;;
8423;SDS011;4249;49.072;9.770;2022-08-03T04:54:26;4.75;;;3.95;;
8423;SDS011;4249;49.072;9.770;2022-08-03T04:57:13;4.70;;;3.83;;
8423;SDS011;4249;49.072;9.770;2022-08-03T05:00:00;4.50;;;4.10;;
8423;SDS011;4249;49.072;9.770;2022-08-03T05:02:48;4.57;;;4.10;;
8423;SDS011;4249;49.072;9.770;2022-08-03T05:05:35;4.38;;;3.70;;
8423;SDS011;4249;49.072;9.770;2022-08-03T05:08:22;7.30;;;4.20;;
8423;SDS011;4249;49.072;9.770;2022-08-03T05:11:11;4.40;;;3.90;;
8423;SDS011;4249;49.072;9.770;2022-08-03T05:13:38;5.07;;;4.53;;
8423;SDS011;4249;49.072;9.770;2022-08-03T05:16:05;5.25;;;4.70;;
8423;SDS011;4249;49.072;9.770;2022-08-03T05:18:32;5.03;;;4.38;;
8423;SDS011;4249;49.072;9.770;2022-08-03T05:20:59;3.97;;;3.58;;
8423;SDS011;4249;49.072;9.770;2022-08-03T05:23:26;5.97;;;4.03;;
8423;SDS011;4249;49.072;9.770;2022-08-03T05:25:53;3.85;;;3.42;;
8423;SDS011;4249;49.072;9.770;2022-08-03T05:28:22;4.15;;;3.53;;
8423;SDS011;4249;49.072;9.770;2022-08-03T05:30:48;4.10;;;3.70;;
8423;SDS011;4249;49.072;9.770;2022-08-03T05:33:15;4.43;;;3.72;;
8423;SDS011;4249;49.072;9.770;2022-08-03T05:35:42;4.60;;;3.63;;
8423;SDS011;4249;49.072;9.770;2022-08-03T05:38:09;4.20;;;3.80;;
8423;SDS011;4249;49.072;9.770;2022-08-03T05:40:36;4.13;;;3.67;;
8423;SDS011;4249;49.072;9.770;2022-08-03T05:43:03;3.65;;;3.35;;
8423;SDS011;4249;49.072;9.770;2022-08-03T05:45:32;4.13;;;3.72;;
8423;SDS011;4249;49.072;9.770;2022-08-03T05:47:59;4.60;;;3.60;;
8423;SDS011;4249;49.072;9.770;2022-08-03T05:50:25;3.95;;;3.55;;
8423;SDS011;4249;49.072;9.770;2022-08-03T05:52:54;4.03;;;3.63;;
8423;SDS011;4249;49.072;9.770;2022-08-03T05:55:21;4.20;;;3.80;;
8423;SDS011;4249;49.072;9.770;2022-08-03T05:57:48;4.18;;;3.78;;
8423;SDS011;4249;49.072;9.770;2022-08-03T06:00:15;5.70;;;3.80;;
8423;SDS011;4249;49.072;9.770;2022-08-03T06:02:44;4.22;;;3.83;;
8423;SDS011;4249;49.072;9.770;2022-08-03T06:05:11;4.18;;;3.78;;
8423;SDS011;4249;49.072;9.770;2022-08-03T06:07:38;5.65;;;3.60;;
8423;SDS011;4249;49.072;9.770;2022-08-03T06:10:05;4.00;;;3.58;;
8423;SDS011;4249;49.072;9.770;2022-08-03T06:12:33;4.20;;;3.45;;
8423;SDS011;4249;49.072;9.770;2022-08-03T06:15:00;3.40;;;3.10;;
8423;SDS011;4249;49.072;9.770;2022-08-03T06:17:28;3.50;;;3.20;;
8423;SDS011;4249;49.072;9.770;2022-08-03T06:19:56;3.17;;;2.90;;
8423;SDS011;4249;49.072;9.770;2022-08-03T06:22:23;3.22;;;2.85;;
8423;SDS011;4249;49.072;9.770;2022-08-03T06:24:50;3.72;;;2.80;;
8423;SDS011;4249;49.072;9.770;2022-08-03T06:27:17;3.25;;;2.95;;
8423;SDS011;4249;49.072;9.770;2022-08-03T06:29:44;3.25;;;2.95;;
8423;SDS011;4249;49.072;9.770;2022-08-03T06:32:11;2.88;;;2.60;;
8423;SDS011;4249;49.072;9.770;2022-08-03T06:34:38;2.80;;;2.60;;
8423;SDS011;4249;49.072;9.770;2022-08-03T06:37:07;3.70;;;2.58;;
8423;SDS011;4249;49.072;9.770;2022-08-03T06:39:34;5.18;;;2.90;;
8423;SDS011;4249;49.072;9.770;2022-08-03T06:42:01;3.55;;;2.85;;
8423;SDS011;4249;49.072;9.770;2022-08-03T06:44:28;3.35;;;2.88;;
8423;SDS011;4249;49.072;9.770;2022-08-03T06:46:55;3.25;;;2.90;;
8423;SDS011;4249;49.072;9.770;2022-08-03T06:49:22;3.10;;;2.80;;
8423;SDS011;4249;49.072;9.770;2022-08-03T06:51:49;3.97;;;3.10;;
8423;SDS011;4249;49.072;9.770;2022-08-03T06:54:19;3.72;;;2.78;;
8423;SDS011;4249;49.072;9.770;2022-08-03T06:56:48;3.45;;;3.20;;
8423;SDS011;4249;49.072;9.770;2022-08-03T06:59:15;3.42;;;2.80;;
8423;SDS011;4249;49.072;9.770;2022-08-03T07:01:42;5.00;;;2.90;;
8423;SDS011;4249;49.072;9.770;2022-08-03T07:04:09;4.78;;;3.20;;
8423;SDS011;4249;49.072;9.770;2022-08-03T07:06:36;3.30;;;2.80;;
8423;SDS011;4249;49.072;9.770;2022-08-03T07:09:03;3.00;;;2.80;;
8423;SDS011;4249;49.072;9.770;2022-08-03T07:11:31;4.68;;;2.83;;
8423;SDS011;4249;49.072;9.770;2022-08-03T07:13:58;3.78;;;2.80;;
8423;SDS011;4249;49.072;9.770;2022-08-03T07:16:25;3.65;;;3.08;;
8423;SDS011;4249;49.072;9.770;2022-08-03T07:18:52;4.10;;;2.92;;
8423;SDS011;4249;49.072;9.770;2022-08-03T07:21:19;3.53;;;3.22;;
8423;SDS011;4249;49.072;9.770;2022-08-03T07:23:45;3.17;;;2.58;;
8423;SDS011;4249;49.072;9.770;2022-08-03T07:26:12;3.13;;;2.92;;
8423;SDS011;4249;49.072;9.770;2022-08-03T07:28:41;4.05;;;2.53;;
8423;SDS011;4249;49.072;9.770;2022-08-03T07:31:08;3.58;;;2.83;;
8423;SDS011;4249;49.072;9.770;2022-08-03T07:33:34;3.58;;;2.97;;
8423;SDS011;4249;49.072;9.770;2022-08-03T07:36:01;3.47;;;2.75;;
8423;SDS011;4249;49.072;9.770;2022-08-03T07:38:29;3.78;;;2.80;;
8423;SDS011;4249;49.072;9.770;2022-08-03T07:40:56;3.22;;;2.90;;
8423;SDS011;4249;49.072;9.770;2022-08-03T07:43:22;3.13;;;2.60;;
8423;SDS011;4249;49.072;9.770;2022-08-03T07:45:51;3.40;;;2.40;;
8423;SDS011;4249;49.072;9.770;2022-08-03T07:48:17;2.38;;;2.28;;
8423;SDS011;4249;49.072;9.770;2022-08-03T07:50:44;4.75;;;2.80;;
8423;SDS011;4249;49.072;9.770;2022-08-03T07:53:11;2.67;;;2.47;;
8423;SDS011;4249;49.072;9.770;2022-08-03T07:55:38;5.85;;;2.60;;
8423;SDS011;4249;49.072;9.770;2022-08-03T07:58:06;2.70;;;2.50;;
8423;SDS011;4249;49.072;9.770;2022-08-03T08:00:36;5.35;;;2.95;;
8423;SDS011;4249;49.072;9.770;2022-08-03T08:03:05;4.47;;;2.40;;
8423;SDS011;4249;49.072;9.770;2022-08-03T08:05:31;3.85;;;2.65;;
8423;SDS011;4249;49.072;9.770;2022-08-03T08:07:59;3.75;;;2.97;;
8423;SDS011;4249;49.072;9.770;2022-08-03T08:10:26;2.88;;;2.53;;
8423;SDS011;4249;49.072;9.770;2022-08-03T08:12:54;2.65;;;2.40;;
8423;SDS011;4249;49.072;9.770;2022-08-03T08:15:21;3.40;;;2.50;;
8423;SDS011;4249;49.072;9.770;2022-08-03T08:17:49;3.40;;;2.30;;
8423;SDS011;4249;49.072;9.770;2022-08-03T08:20:19;2.50;;;2.30;;
8423;SDS011;4249;49.072;9.770;2022-08-03T08:22:47;2.58;;;2.38;;
8423;SDS011;4249;49.072;9.770;2022-08-03T08:25:14;3.72;;;2.70;;
8423;SDS011;4249;49.072;9.770;2022-08-03T08:27:42;2.55;;;2.35;;
8423;SDS011;4249;49.072;9.770;2022-08-03T08:30:10;4.05;;;2.63;;
8423;SDS011;4249;49.072;9.770;2022-08-03T08:32:38;4.75;;;2.38;;
8423;SDS011;4249;49.072;9.770;2022-08-03T08:35:06;4.43;;;2.50;;
8423;SDS011;4249;49.072;9.770;2022-08-03T08:37:35;5.20;;;2.30;;
8423;SDS011;4249;49.072;9.770;2022-08-03T08:40:03;2.60;;;2.40;;
8423;SDS011;4249;49.072;9.770;2022-08-03T08:42:30;4.55;;;2.60;;
8423;SDS011;4249;49.072;9.770;2022-08-03T08:44:58;2.92;;;2.55;;
8423;SDS011;4249;49.072;9.770;2022-08-03T08:47:29;3.30;;;2.40;;
8423;SDS011;4249;49.072;9.770;2022-08-03T08:49:58;3.45;;;2.50;;
8423;SDS011;4249;49.072;9.770;2022-08-03T08:52:27;2.92;;;2.13;;
8423;SDS011;4249;49.072;9.770;2022-08-03T08:54:57;2.30;;;2.10;;
8423;SDS011;4249;49.072;9.770;2022-08-03T08:57:26;2.65;;;2.20;;
8423;SDS011;4249;49.072;9.770;2022-08-03T08:59:55;3.13;;;2.10;;
8423;SDS011;4249;49.072;9.770;2022-08-03T09:02:23;2.30;;;2.10;;
8423;SDS011;4249;49.072;9.770;2022-08-03T09:04:50;2.92;;;2.20;;
8423;SDS011;4249;49.072;9.770;2022-08-03T09:07:18;3.63;;;2.30;;
8423;SDS011;4249;49.072;9.770;2022-08-03T09:09:45;2.28;;;2.08;;
8423;SDS011;4249;49.072;9.770;2022-08-03T09:12:13;2.22;;;2.10;;
8423;SDS011;4249;49.072;9.770;2022-08-03T09:14:41;2.47;;;2.28;;
8423;SDS011;4249;49.072;9.770;2022-08-03T09:17:07;2.83;;;2.10;;
8423;SDS011;4249;49.072;9.770;2022-08-03T09:19:34;5.45;;;1.95;;
8423;SDS011;4249;49.072;9.770;2022-08-03T09:22:09;1.90;;;1.80;;
8423;SDS011;4249;49.072;9.770;2022-08-03T09:24:38;2.08;;;1.98;;
8423;SDS011;4249;49.072;9.770;2022-08-03T09:27:21;2.65;;;1.98;;
8423;SDS011;4249;49.072;9.770;2022-08-03T09:29:49;1.90;;;1.80;;
8423;SDS011;4249;49.072;9.770;2022-08-03T09:32:18;2.60;;;1.90;;
8423;SDS011;4249;49.072;9.770;2022-08-03T09:34:46;2.30;;;2.10;;
8423;SDS011;4249;49.072;9.770;2022-08-03T09:37:14;3.05;;;1.83;;
8423;SDS011;4249;49.072;9.770;2022-08-03T09:39:43;2.70;;;1.85;;
8423;SDS011;4249;49.072;9.770;2022-08-03T09:42:11;2.25;;;2.10;;
8423;SDS011;4249;49.072;9.770;2022-08-03T09:44:41;2.13;;;1.98;;
8423;SDS011;4249;49.072;9.770;2022-08-03T09:47:09;4.40;;;2.00;;
8423;SDS011;4249;49.072;9.770;2022-08-03T09:49:36;2.83;;;2.00;;
8423;SDS011;4249;49.072;9.770;2022-08-03T09:52:12;11.52;;;2.50;;
8423;SDS011;4249;49.072;9.770;2022-08-03T09:54:40;2.72;;;2.30;;
8423;SDS011;4249;49.072;9.770;2022-08-03T09:57:09;2.55;;;2.35;;
8423;SDS011;4249;49.072;9.770;2022-08-03T09:59:48;1.92;;;1.77;;
8423;SDS011;4249;49.072;9.770;2022-08-03T10:02:19;3.78;;;2.30;;
8423;SDS011;4249;49.072;9.770;2022-08-03T10:04:47;3.28;;;2.30;;
8423;SDS011;4249;49.072;9.770;2022-08-03T10:07:17;5.00;;;2.42;;
8423;SDS011;4249;49.072;9.770;2022-08-03T10:09:52;2.95;;;2.20;;
8423;SDS011;4249;49.072;9.770;2022-08-03T10:12:20;2.30;;;2.13;;
8423;SDS011;4249;49.072;9.770;2022-08-03T10:14:48;2.40;;;2.20;;
8423;SDS011;4249;49.072;9.770;2022-08-03T10:17:16;3.45;;;2.20;;
8423;SDS011;4249;49.072;9.770;2022-08-03T10:19:44;2.35;;;2.15;;
8423;SDS011;4249;49.072;9.770;2022-08-03T10:22:12;2.08;;;1.88;;
8423;SDS011;4249;49.072;9.770;2022-08-03T10:24:43;1.90;;;1.80;;
8423;SDS011;4249;49.072;9.770;2022-08-03T10:27:16;2.67;;;1.92;;
8423;SDS011;4249;49.072;9.770;2022-08-03T10:29:46;2.17;;;2.08;;
8423;SDS011;4249;49.072;9.770;2022-08-03T10:32:18;3.05;;;2.03;;
8423;SDS011;4249;49.072;9.770;2022-08-03T10:34:51;2.63;;;2.10;;
8423;SDS011;4249;49.072;9.770;2022-08-03T10:37:25;2.00;;;1.90;;
8423;SDS011;4249;49.072;9.770;2022-08-03T10:39:54;2.60;;;2.25;;
8423;SDS011;4249;49.072;9.770;2022-08-03T10:42:22;2.13;;;2.03;;
8423;SDS011;4249;49.072;9.770;2022-08-03T10:44:55;2.35;;;2.15;;
8423;SDS011;4249;49.072;9.770;2022-08-03T10:47:29;2.08;;;1.98;;
8423;SDS011;4249;49.072;9.770;2022-08-03T10:49:57;2.33;;;2.10;;
8423;SDS011;4249;49.072;9.770;2022-08-03T10:52:25;2.38;;;2.10;;
8423;SDS011;4249;49.072;9.770;2022-08-03T10:54:52;2.85;;;2.22;;
8423;SDS011;4249;49.072;9.770;2022-08-03T10:57:43;2.10;;;2.00;;
8423;SDS011;4249;49.072;9.770;2022-08-03T11:00:13;2.13;;;2.03;;
8423;SDS011;4249;49.072;9.770;2022-08-03T11:05:43;2.83;;;2.30;;
8423;SDS011;4249;49.072;9.770;2022-08-03T11:08:17;2.80;;;2.08;;
8423;SDS011;4249;49.072;9.770;2022-08-03T11:10:52;4.63;;;2.28;;
8423;SDS011;4249;49.072;9.770;2022-08-03T11:13:21;2.05;;;1.85;;
8423;SDS011;4249;49.072;9.770;2022-08-03T11:15:51;2.33;;;2.10;;
8423;SDS011;4249;49.072;9.770;2022-08-03T11:18:20;3.88;;;2.00;;
8423;SDS011;4249;49.072;9.770;2022-08-03T11:20:49;2.00;;;1.83;;
8423;SDS011;4249;49.072;9.770;2022-08-03T11:23:18;3.10;;;2.00;;
8423;SDS011;4249;49.072;9.770;2022-08-03T11:26:12;2.78;;;2.05;;
8423;SDS011;4249;49.072;9.770;2022-08-03T11:28:42;3.83;;;2.65;;
8423;SDS011;4249;49.072;9.770;2022-08-03T11:34:12;4.28;;;2.50;;
8423;SDS011;4249;49.072;9.770;2022-08-03T11:39:47;4.50;;;1.92;;
8423;SDS011;4249;49.072;9.770;2022-08-03T11:45:06;2.72;;;2.08;;
8423;SDS011;4249;49.072;9.770;2022-08-03T11:47:39;4.15;;;1.90;;
8423;SDS011;4249;49.072;9.770;2022-08-03T11:50:07;3.40;;;2.17;;
8423;SDS011;4249;49.072;9.770;2022-08-03T11:52:40;6.07;;;2.17;;
8423;SDS011;4249;49.072;9.770;2022-08-03T11:55:07;2.95;;;2.00;;
8423;SDS011;4249;49.072;9.770;2022-08-03T11:57:39;2.15;;;1.95;;
8423;SDS011;4249;49.072;9.770;2022-08-03T12:00:25;3.25;;;1.92;;
8423;SDS011;4249;49.072;9.770;2022-08-03T12:03:16;3.47;;;1.98;;
8423;SDS011;4249;49.072;9.770;2022-08-03T12:06:07;2.05;;;1.85;;
8423;SDS011;4249;49.072;9.770;2022-08-03T12:08:56;2.90;;;2.05;;
8423;SDS011;4249;49.072;9.770;2022-08-03T12:11:46;2.67;;;2.00;;
8423;SDS011;4249;49.072;9.770;2022-08-03T12:14:34;1.75;;;1.65;;
8423;SDS011;4249;49.072;9.770;2022-08-03T12:17:21;6.35;;;2.63;;
8423;SDS011;4249;49.072;9.770;2022-08-03T12:20:13;1.92;;;1.83;;
8423;SDS011;4249;49.072;9.770;2022-08-03T12:23:08;3.55;;;2.05;;
8423;SDS011;4249;49.072;9.770;2022-08-03T12:26:00;3.13;;;2.20;;
8423;SDS011;4249;49.072;9.770;2022-08-03T12:28:48;1.88;;;1.77;;
8423;SDS011;4249;49.072;9.770;2022-08-03T12:31:36;2.10;;;2.00;;
8423;SDS011;4249;49.072;9.770;2022-08-03T12:34:23;2.33;;;2.13;;
8423;SDS011;4249;49.072;9.770;2022-08-03T12:37:31;2.40;;;1.95;;
8423;SDS011;4249;49.072;9.770;2022-08-03T12:40:23;2.30;;;2.10;;
8423;SDS011;4249;49.072;9.770;2022-08-03T12:43:12;1.88;;;1.70;;
8423;SDS011;4249;49.072;9.770;2022-08-03T12:49:02;3.72;;;1.80;;
8423;SDS011;4249;49.072;9.770;2022-08-03T12:51:57;2.45;;;1.92;;
8423;SDS011;4249;49.072;9.770;2022-08-03T12:54:54;2.17;;;1.92;;
8423;SDS011;4249;49.072;9.770;2022-08-03T12:57:42;2.30;;;1.90;;
8423;SDS011;4249;49.072;9.770;2022-08-03T13:00:29;2.03;;;1.60;;
8423;SDS011;4249;49.072;9.770;2022-08-03T13:03:17;2.38;;;2.17;;
8423;SDS011;4249;49.072;9.770;2022-08-03T13:06:09;3.42;;;1.92;;
8423;SDS011;4249;49.072;9.770;2022-08-03T13:09:01;2.03;;;1.80;;
8423;SDS011;4249;49.072;9.770;2022-08-03T13:12:04;1.88;;;1.77;;
8423;SDS011;4249;49.072;9.770;2022-08-03T13:14:53;2.33;;;2.00;;
8423;SDS011;4249;49.072;9.770;2022-08-03T13:17:41;1.80;;;1.70;;
8423;SDS011;4249;49.072;9.770;2022-08-03T13:20:28;1.90;;;1.80;;
8423;SDS011;4249;49.072;9.770;2022-08-03T13:23:16;2.45;;;2.10;;
8423;SDS011;4249;49.072;9.770;2022-08-03T13:26:04;2.00;;;1.70;;
8423;SDS011;4249;49.072;9.770;2022-08-03T13:28:53;2.78;;;1.83;;
8423;SDS011;4249;49.072;9.770;2022-08-03T13:31:40;7.72;;;2.50;;
8423;SDS011;4249;49.072;9.770;2022-08-03T13:34:27;1.80;;;1.70;;
8423;SDS011;4249;49.072;9.770;2022-08-03T13:37:14;1.85;;;1.70;;
8423;SDS011;4249;49.072;9.770;2022-08-03T13:39:41;2.13;;;1.88;;
8423;SDS011;4249;49.072;9.770;2022-08-03T13:42:08;3.47;;;2.58;;
8423;SDS011;4249;49.072;9.770;2022-08-03T13:44:36;1.77;;;1.65;;
8423;SDS011;4249;49.072;9.770;2022-08-03T13:47:03;3.35;;;2.03;;
8423;SDS011;4249;49.072;9.770;2022-08-03T13:49:30;1.80;;;1.70;;
8423;SDS011;4249;49.072;9.770;2022-08-03T13:51:57;6.15;;;2.17;;
8423;SDS011;4249;49.072;9.770;2022-08-03T13:54:24;2.80;;;1.80;;
8423;SDS011;4249;49.072;9.770;2022-08-03T13:56:52;5.53;;;2.00;;
8423;SDS011;4249;49.072;9.770;2022-08-03T13:59:19;4.50;;;2.05;;
8423;SDS011;4249;49.072;9.770;2022-08-03T14:01:48;3.08;;;2.10;;
8423;SDS011;4249;49.072;9.770;2022-08-03T14:04:16;2.05;;;1.63;;
8423;SDS011;4249;49.072;9.770;2022-08-03T14:06:43;4.60;;;1.80;;
8423;SDS011;4249;49.072;9.770;2022-08-03T14:09:10;2.75;;;1.70;;
8423;SDS011;4249;49.072;9.770;2022-08-03T14:11:37;1.98;;;1.65;;
8423;SDS011;4249;49.072;9.770;2022-08-03T14:14:04;2.20;;;1.80;;
8423;SDS011;4249;49.072;9.770;2022-08-03T14:16:31;2.05;;;1.85;;
8423;SDS011;4249;49.072;9.770;2022-08-03T14:18:59;1.70;;;1.60;;
8423;SDS011;4249;49.072;9.770;2022-08-03T14:21:26;2.28;;;1.67;;
8423;SDS011;4249;49.072;9.770;2022-08-03T14:23:53;2.53;;;1.90;;
8423;SDS011;4249;49.072;9.770;2022-08-03T14:26:20;2.00;;;1.70;;
8423;SDS011;4249;49.072;9.770;2022-08-03T14:28:48;1.80;;;1.70;;
8423;SDS011;4249;49.072;9.770;2022-08-03T14:31:15;2.05;;;1.85;;
8423;SDS011;4249;49.072;9.770;2022-08-03T14:33:42;2.05;;;1.88;;
8423;SDS011;4249;49.072;9.770;2022-08-03T14:36:10;2.05;;;1.80;;
8423;SDS011;4249;49.072;9.770;2022-08-03T14:38:37;2.95;;;1.90;;
8423;SDS011;4249;49.072;9.770;2022-08-03T14:41:04;2.10;;;1.90;;
8423;SDS011;4249;49.072;9.770;2022-08-03T14:43:30;3.10;;;1.90;;
8423;SDS011;4249;49.072;9.770;2022-08-03T14:45:57;3.53;;;1.90;;
8423;SDS011;4249;49.072;9.770;2022-08-03T14:48:24;2.70;;;1.90;;
8423;SDS011;4249;49.072;9.770;2022-08-03T14:50:51;2.80;;;1.85;;
8423;SDS011;4249;49.072;9.770;2022-08-03T14:53:20;2.80;;;1.90;;
8423;SDS011;4249;49.072;9.770;2022-08-03T14:55:47;2.30;;;1.80;;
8423;SDS011;4249;49.072;9.770;2022-08-03T14:58:16;2.20;;;1.80;;
8423;SDS011;4249;49.072;9.770;2022-08-03T15:00:44;2.10;;;1.90;;
8423;SDS011;4249;49.072;9.770;2022-08-03T15:03:11;2.15;;;1.90;;
8423;SDS011;4249;49.072;9.770;2022-08-03T15:05:37;3.53;;;2.38;;
8423;SDS011;4249;49.072;9.770;2022-08-03T15:08:04;1.70;;;1.60;;
8423;SDS011;4249;49.072;9.770;2022-08-03T15:10:33;3.00;;;1.83;;
8423;SDS011;4249;49.072;9.770;2022-08-03T15:12:59;4.15;;;2.25;;
8423;SDS011;4249;49.072;9.770;2022-08-03T15:15:26;3.28;;;2.03;;
8423;SDS011;4249;49.072;9.770;2022-08-03T15:17:53;3.88;;;2.03;;
8423;SDS011;4249;49.072;9.770;2022-08-03T15:20:20;2.28;;;1.83;;
8423;SDS011;4249;49.072;9.770;2022-08-03T15:22:47;2.03;;;1.83;;
8423;SDS011;4249;49.072;9.770;2022-08-03T15:25:14;2.40;;;1.73;;
8423;SDS011;4249;49.072;9.770;2022-08-03T15:28:01;1.80;;;1.70;;
8423;SDS011;4249;49.072;9.770;2022-08-03T15:33:37;4.53;;;2.60;;
8423;SDS011;4249;49.072;9.770;2022-08-03T15:36:25;2.30;;;1.65;;
8423;SDS011;4249;49.072;9.770;2022-08-03T15:39:12;3.65;;;2.10;;
8423;SDS011;4249;49.072;9.770;2022-08-03T15:41:59;2.00;;;1.90;;
8423;SDS011;4249;49.072;9.770;2022-08-03T15:44:47;2.70;;;2.22;;
8423;SDS011;4249;49.072;9.770;2022-08-03T15:47:35;2.65;;;1.70;;
8423;SDS011;4249;49.072;9.770;2022-08-03T15:50:22;4.60;;;1.90;;
8423;SDS011;4249;49.072;9.770;2022-08-03T15:53:09;1.80;;;1.70;;
8423;SDS011;4249;49.072;9.770;2022-08-03T15:55:59;5.45;;;2.22;;
8423;SDS011;4249;49.072;9.770;2022-08-03T15:58:46;2.97;;;1.98;;
8423;SDS011;4249;49.072;9.770;2022-08-03T16:01:35;2.10;;;2.00;;
8423;SDS011;4249;49.072;9.770;2022-08-03T16:04:22;2.10;;;1.90;;
8423;SDS011;4249;49.072;9.770;2022-08-03T16:07:10;1.70;;;1.60;;
8423;SDS011;4249;49.072;9.770;2022-08-03T16:09:59;1.92;;;1.80;;
8423;SDS011;4249;49.072;9.770;2022-08-03T16:12:47;1.77;;;1.52;;
8423;SDS011;4249;49.072;9.770;2022-08-03T16:15:34;4.45;;;2.00;;
8423;SDS011;4249;49.072;9.770;2022-08-03T16:18:24;3.35;;;2.08;;
8423;SDS011;4249;49.072;9.770;2022-08-03T16:21:15;1.65;;;1.55;;
8423;SDS011;4249;49.072;9.770;2022-08-03T16:24:02;6.72;;;2.38;;
8423;SDS011;4249;49.072;9.770;2022-08-03T16:26:50;2.38;;;2.05;;
8423;SDS011;4249;49.072;9.770;2022-08-03T16:29:37;2.85;;;2.13;;
8423;SDS011;4249;49.072;9.770;2022-08-03T16:32:24;2.20;;;1.80;;
8423;SDS011;4249;49.072;9.770;2022-08-03T16:35:13;3.55;;;2.10;;
8423;SDS011;4249;49.072;9.770;2022-08-03T16:38:01;2.35;;;2.10;;
8423;SDS011;4249;49.072;9.770;2022-08-03T16:40:49;1.60;;;1.50;;